Terminal Aerodrome Forecast
Issued by NWS

Home | Current Version | Previous Version | Text Only | Print | Product List | Glossary On
Versions: 1 2 3 4 5 6 7 8 9
911
FTUS42 KMLB 232345
TAFLEE
TAF
KLEE 232345Z 2400/2424 14008KT P6SM VCSH SCT050 BKN080
     FM240200 18004KT P6SM FEW080
     FM240700 24006KT P6SM FEW020
     FM241200 28009KT P6SM SCT030
      TEMPO 2412/2414 BKN035
     FM241800 28015G22KT P6SM SCT040=

USA.gov is the U.S. government's official web portal to all federal, state and local government web resources and services.